createdAt,value
2018-11-27T00:00:35.945Z,58.70
2018-11-27T00:03:07.673Z,56.97
2018-11-27T00:05:36.390Z,53.20
2018-11-27T00:08:03.975Z,51.83
2018-11-27T00:10:32.840Z,54.93
2018-11-27T00:13:00.364Z,54.13
2018-11-27T00:15:27.869Z,54.13
2018-11-27T00:17:55.433Z,54.03
2018-11-27T00:20:22.992Z,49.07
2018-11-27T00:22:50.505Z,57.10
2018-11-27T00:25:18.441Z,53.60
2018-11-27T00:27:45.992Z,55.93
2018-11-27T00:30:16.122Z,51.63
2018-11-27T00:32:43.653Z,53.27
2018-11-27T00:35:12.970Z,53.27
2018-11-27T00:37:40.556Z,54.60
2018-11-27T00:40:12.451Z,54.03
2018-11-27T00:42:40.729Z,50.70
2018-11-27T00:45:09.715Z,53.27
2018-11-27T00:47:37.247Z,53.07
2018-11-27T00:50:09.207Z,52.27
2018-11-27T00:52:37.042Z,57.50
2018-11-27T00:55:05.563Z,57.40
2018-11-27T00:57:33.116Z,62.17
2018-11-27T01:00:00.652Z,61.97
2018-11-27T01:02:28.176Z,62.77
2018-11-27T01:04:55.694Z,67.10
2018-11-27T01:07:23.366Z,65.53
2018-11-27T01:09:50.903Z,66.40
2018-11-27T01:12:18.594Z,62.00
2018-11-27T01:14:46.102Z,64.93
2018-11-27T01:17:13.653Z,65.40
2018-11-27T01:19:41.171Z,62.87
2018-11-27T01:22:08.682Z,72.67
2018-11-27T01:24:36.163Z,64.80
2018-11-27T01:27:04.028Z,61.23
2018-11-27T01:29:31.489Z,65.27
2018-11-27T01:31:58.957Z,60.73
2018-11-27T01:34:26.485Z,62.97
2018-11-27T01:36:54.042Z,67.77
2018-11-27T01:39:21.542Z,63.93
2018-11-27T01:41:49.008Z,67.03
2018-11-27T01:44:16.566Z,66.87
2018-11-27T01:46:44.120Z,69.43
2018-11-27T01:49:11.625Z,62.67
2018-11-27T01:51:39.123Z,64.77
2018-11-27T01:54:06.634Z,64.70
2018-11-27T01:56:34.149Z,64.40
2018-11-27T01:59:01.659Z,70.13
2018-11-27T02:01:29.190Z,62.70
2018-11-27T02:03:56.713Z,64.97
2018-11-27T02:06:24.834Z,59.80
2018-11-27T02:08:55.673Z,59.10
2018-11-27T02:11:23.479Z,60.67
2018-11-27T02:13:51.013Z,64.97
2018-11-27T02:16:18.533Z,63.43
2018-11-27T02:18:46.341Z,62.47
2018-11-27T02:21:13.797Z,61.37
2018-11-27T02:23:41.336Z,61.43
2018-11-27T02:26:08.826Z,55.30
2018-11-27T02:28:36.338Z,55.87
2018-11-27T02:31:05.097Z,57.30
2018-11-27T02:33:32.600Z,54.13
2018-11-27T02:36:00.082Z,54.40
2018-11-27T02:38:27.615Z,52.97
2018-11-27T02:40:55.132Z,56.13
2018-11-27T02:43:22.699Z,54.57
2018-11-27T02:45:56.975Z,53.47
2018-11-27T02:48:24.428Z,54.73
2018-11-27T02:50:52.077Z,56.67
2018-11-27T02:53:19.709Z,54.13
2018-11-27T02:55:47.198Z,54.47
2018-11-27T02:58:14.789Z,56.13
2018-11-27T03:00:42.278Z,56.77
2018-11-27T03:03:09.993Z,55.57
2018-11-27T03:05:37.480Z,52.70
2018-11-27T03:08:05.332Z,52.47
2018-11-27T03:10:32.983Z,54.97
2018-11-27T03:13:00.506Z,52.87
2018-11-27T03:15:28.050Z,53.33
2018-11-27T03:17:55.653Z,51.53
2018-11-27T03:20:23.184Z,53.40
2018-11-27T03:22:50.738Z,52.27
2018-11-27T03:25:19.506Z,49.73
2018-11-27T03:27:48.097Z,53.83
2018-11-27T03:30:16.671Z,51.70
2018-11-27T03:32:44.159Z,50.10
2018-11-27T03:35:15.925Z,51.70
2018-11-27T03:37:44.126Z,49.20
2018-11-27T03:40:18.387Z,52.90
2018-11-27T03:42:45.849Z,50.70
2018-11-27T03:45:14.293Z,49.87
2018-11-27T03:47:43.071Z,51.17
2018-11-27T03:50:13.223Z,50.30
2018-11-27T03:52:40.688Z,49.70
2018-11-27T03:55:09.200Z,50.23
2018-11-27T03:57:36.681Z,48.90
2018-11-27T04:00:21.645Z,46.43
2018-11-27T04:02:51.584Z,46.77
2018-11-27T04:05:19.240Z,46.67
2018-11-27T04:07:46.714Z,46.00
2018-11-27T04:10:16.343Z,46.50
2018-11-27T04:12:43.827Z,49.30
2018-11-27T04:15:11.828Z,49.77
2018-11-27T04:17:39.460Z,48.30
2018-11-27T04:20:08.319Z,49.33
2018-11-27T04:22:36.061Z,46.43
2018-11-27T04:25:04.057Z,48.13
2018-11-27T04:27:31.608Z,47.33
2018-11-27T04:29:59.274Z,48.17
2018-11-27T04:32:26.757Z,48.57
2018-11-27T04:34:54.257Z,46.80
2018-11-27T04:37:21.760Z,50.83
2018-11-27T04:39:49.233Z,48.03
2018-11-27T04:42:17.021Z,52.90
2018-11-27T04:44:44.552Z,52.03
2018-11-27T04:47:12.008Z,51.93
2018-11-27T04:49:39.511Z,52.37
2018-11-27T04:52:06.982Z,49.53
2018-11-27T04:54:34.474Z,53.27
2018-11-27T04:57:02.040Z,49.33
2018-11-27T04:59:29.547Z,52.13
2018-11-27T05:01:57.042Z,44.43
2018-11-27T05:04:24.544Z,47.33
2018-11-27T05:06:52.313Z,45.80
2018-11-27T05:09:19.773Z,48.03
2018-11-27T05:11:47.882Z,54.77
2018-11-27T05:14:15.397Z,51.37
2018-11-27T05:16:42.935Z,53.67
2018-11-27T05:19:10.522Z,51.50
2018-11-27T05:21:38.017Z,49.33
2018-11-27T05:24:06.141Z,51.80
2018-11-27T05:26:33.667Z,50.70
2018-11-27T05:29:01.174Z,52.07
2018-11-27T05:31:28.709Z,49.80
2018-11-27T05:33:56.173Z,49.17
2018-11-27T05:36:23.739Z,47.77
2018-11-27T05:38:51.260Z,47.33
2018-11-27T05:41:18.741Z,48.43
2018-11-27T05:43:46.290Z,46.97
2018-11-27T05:46:13.797Z,50.17
2018-11-27T05:48:41.354Z,48.20
2018-11-27T05:51:08.862Z,47.07
2018-11-27T05:53:36.347Z,47.57
2018-11-27T05:56:03.924Z,44.27
2018-11-27T05:58:31.415Z,45.50
2018-11-27T06:00:59.171Z,50.40
2018-11-27T06:03:26.659Z,47.33
2018-11-27T06:05:54.236Z,42.40
2018-11-27T06:08:21.764Z,45.83
2018-11-27T06:10:49.249Z,45.57
2018-11-27T06:13:16.882Z,45.03
2018-11-27T06:15:44.406Z,49.73
2018-11-27T06:18:11.933Z,43.00
2018-11-27T06:20:39.467Z,46.70
2018-11-27T06:23:07.027Z,45.07
2018-11-27T06:25:34.583Z,42.60
2018-11-27T06:28:03.433Z,45.00
2018-11-27T06:30:32.153Z,43.47
2018-11-27T06:32:59.719Z,46.53
2018-11-27T06:35:35.391Z,49.03
2018-11-27T06:38:04.434Z,46.73
2018-11-27T06:40:31.996Z,48.63
2018-11-27T06:42:59.525Z,48.77
2018-11-27T06:45:27.072Z,48.33
2018-11-27T06:47:54.852Z,43.67
2018-11-27T06:50:22.772Z,45.70
2018-11-27T06:52:50.258Z,45.37
2018-11-27T06:55:19.585Z,43.97
2018-11-27T06:57:47.295Z,47.17
2018-11-27T07:00:16.055Z,42.53
2018-11-27T07:02:43.813Z,44.50
2018-11-27T07:05:12.268Z,41.37
2018-11-27T07:07:40.303Z,42.03
2018-11-27T07:10:14.073Z,45.50
2018-11-27T07:12:41.627Z,45.63
2018-11-27T07:15:11.441Z,48.77
2018-11-27T07:17:39.029Z,44.37
2018-11-27T07:20:08.775Z,43.27
2018-11-27T07:22:36.266Z,42.83
2018-11-27T07:25:04.570Z,46.20
2018-11-27T07:27:32.150Z,43.80
2018-11-27T07:29:59.658Z,46.67
2018-11-27T07:32:27.218Z,46.60
2018-11-27T07:34:54.847Z,45.13
2018-11-27T07:37:22.372Z,46.30
2018-11-27T07:40:03.142Z,42.43
2018-11-27T07:42:26.324Z,45.87
2018-11-27T07:44:53.912Z,42.60
2018-11-27T07:47:21.471Z,48.83
2018-11-27T07:49:49.038Z,45.00
2018-11-27T07:52:16.566Z,42.80
2018-11-27T07:54:44.151Z,46.43
2018-11-27T07:57:11.860Z,48.17
2018-11-27T07:59:39.572Z,41.07
2018-11-27T08:02:07.168Z,45.77
2018-11-27T08:04:34.777Z,41.57
2018-11-27T08:07:02.883Z,43.47
2018-11-27T08:09:30.451Z,38.07
2018-11-27T08:11:57.987Z,38.10
2018-11-27T08:14:25.981Z,39.20
2018-11-27T08:16:53.500Z,41.60
2018-11-27T08:19:21.240Z,42.83
2018-11-27T08:21:48.740Z,37.57
2018-11-27T08:24:16.403Z,38.90
2018-11-27T08:26:43.974Z,42.20
2018-11-27T08:29:11.548Z,41.47
2018-11-27T08:31:39.066Z,40.13
2018-11-27T08:34:06.557Z,41.00
2018-11-27T08:36:34.341Z,46.87
2018-11-27T08:39:02.263Z,41.50
2018-11-27T08:41:29.997Z,42.00
2018-11-27T08:43:58.095Z,42.50
2018-11-27T08:46:26.669Z,41.40
2018-11-27T08:48:53.191Z,39.33
2018-11-27T08:51:20.664Z,38.10
2018-11-27T08:53:48.188Z,40.07
2018-11-27T08:56:15.630Z,38.70
2018-11-27T08:58:43.137Z,37.70
2018-11-27T09:01:10.631Z,42.77
2018-11-27T09:03:38.203Z,41.57
2018-11-27T09:06:05.803Z,39.47
2018-11-27T09:08:33.489Z,42.53
2018-11-27T09:11:01.181Z,38.80
2018-11-27T09:13:28.722Z,41.03
2018-11-27T09:15:56.609Z,39.73
2018-11-27T09:18:25.489Z,39.20
2018-11-27T09:20:53.034Z,42.37
2018-11-27T09:23:20.604Z,42.77
2018-11-27T09:25:48.161Z,38.10
2018-11-27T09:28:15.847Z,36.77
2018-11-27T09:30:43.385Z,42.03
2018-11-27T09:33:11.119Z,33.77
2018-11-27T09:35:38.702Z,36.40
2018-11-27T09:38:07.432Z,35.93
2018-11-27T09:40:35.454Z,33.90
2018-11-27T09:43:03.146Z,39.20
2018-11-27T09:45:30.786Z,37.37
2018-11-27T09:47:58.993Z,34.33
2018-11-27T09:50:26.676Z,34.47
2018-11-27T09:52:54.273Z,33.47
2018-11-27T09:55:27.268Z,35.20
2018-11-27T09:57:59.053Z,35.10
2018-11-27T10:00:28.136Z,34.77
2018-11-27T10:02:56.875Z,32.57
2018-11-27T10:05:24.584Z,34.73
2018-11-27T10:07:52.200Z,36.00
2018-11-27T10:10:21.995Z,32.23
2018-11-27T10:12:49.996Z,35.07
2018-11-27T10:15:21.731Z,31.13
2018-11-27T10:17:51.876Z,35.40
2018-11-27T10:20:20.553Z,30.67
2018-11-27T10:22:48.110Z,34.37
2018-11-27T10:25:15.699Z,32.67
2018-11-27T10:27:43.740Z,34.60
2018-11-27T10:30:18.155Z,34.30
2018-11-27T10:32:46.268Z,32.57
2018-11-27T10:35:22.783Z,33.70
2018-11-27T10:37:50.310Z,31.97
2018-11-27T10:40:17.866Z,32.30
2018-11-27T10:42:45.509Z,33.93
2018-11-27T10:45:15.973Z,33.40
2018-11-27T10:47:44.199Z,30.27
2018-11-27T10:50:12.669Z,29.60
2018-11-27T10:52:43.304Z,29.40
2018-11-27T10:55:11.961Z,31.77
2018-11-27T10:57:39.567Z,31.50
2018-11-27T11:00:23.037Z,29.27
2018-11-27T11:02:56.217Z,28.23
2018-11-27T11:05:31.116Z,28.90
2018-11-27T11:07:58.635Z,29.63
2018-11-27T11:10:26.180Z,26.23
2018-11-27T11:12:53.761Z,27.60
2018-11-27T11:15:21.318Z,29.10
2018-11-27T11:17:48.893Z,29.27
2018-11-27T11:20:16.471Z,27.67
2018-11-27T11:22:44.024Z,29.93
2018-11-27T11:25:15.709Z,28.47
2018-11-27T11:27:43.857Z,28.93
2018-11-27T11:30:15.494Z,26.47
2018-11-27T11:32:43.764Z,28.83
2018-11-27T11:35:11.663Z,27.33
2018-11-27T11:37:39.440Z,25.83
2018-11-27T11:40:13.497Z,28.47
2018-11-27T11:42:41.095Z,26.93
2018-11-27T11:45:09.697Z,26.60
2018-11-27T11:47:37.207Z,26.30
2018-11-27T11:50:09.158Z,26.60
2018-11-27T11:52:36.684Z,25.77
2018-11-27T11:55:06.449Z,25.17
2018-11-27T11:57:33.954Z,26.33
2018-11-27T12:00:01.521Z,26.93
2018-11-27T12:02:33.846Z,31.40
2018-11-27T12:04:56.736Z,29.57
2018-11-27T12:07:24.504Z,27.83
2018-11-27T12:09:52.083Z,26.57
2018-11-27T12:12:19.623Z,26.90
2018-11-27T12:14:47.140Z,29.27
2018-11-27T12:17:14.687Z,26.67
2018-11-27T12:19:42.237Z,28.63
2018-11-27T12:22:09.798Z,26.77
2018-11-27T12:24:37.309Z,27.93
2018-11-27T12:27:05.207Z,26.17
2018-11-27T12:29:32.698Z,27.37
2018-11-27T12:32:00.322Z,25.00
2018-11-27T12:34:27.817Z,26.67
2018-11-27T12:36:55.315Z,27.77
2018-11-27T12:39:22.796Z,34.43
2018-11-27T12:41:50.309Z,28.07
2018-11-27T12:44:17.820Z,27.57
2018-11-27T12:46:45.279Z,31.90
2018-11-27T12:49:12.881Z,27.23
2018-11-27T12:51:40.368Z,31.00
2018-11-27T12:54:07.933Z,31.80
2018-11-27T12:56:35.467Z,27.63
2018-11-27T12:59:02.952Z,26.27
2018-11-27T13:01:30.444Z,29.83
2018-11-27T13:03:58.160Z,28.73
2018-11-27T13:06:27.898Z,27.53
2018-11-27T13:08:53.567Z,27.57
2018-11-27T13:11:21.249Z,30.10
2018-11-27T13:13:49.121Z,27.57
2018-11-27T13:16:16.883Z,27.50
2018-11-27T13:18:44.636Z,28.13
2018-11-27T13:21:12.440Z,28.63
2018-11-27T13:23:40.095Z,27.80
2018-11-27T13:26:07.831Z,27.50
2018-11-27T13:28:35.531Z,26.60
2018-11-27T13:31:06.670Z,28.77
2018-11-27T13:33:44.890Z,31.50
2018-11-27T13:36:12.776Z,28.17
2018-11-27T13:38:40.613Z,28.33
2018-11-27T13:41:08.397Z,28.17
2018-11-27T13:43:36.309Z,30.47
2018-11-27T13:46:04.577Z,28.07
2018-11-27T13:48:32.270Z,28.33
2018-11-27T13:51:02.807Z,29.67
2018-11-27T13:53:30.505Z,28.87
2018-11-27T13:55:58.322Z,28.90
2018-11-27T13:58:26.279Z,29.33
2018-11-27T14:00:54.405Z,28.03
2018-11-27T14:03:22.280Z,29.53
2018-11-27T14:05:50.171Z,31.13
2018-11-27T14:08:18.708Z,29.87
2018-11-27T14:10:46.921Z,30.93
2018-11-27T14:13:15.023Z,29.90
2018-11-27T14:15:42.886Z,31.93
2018-11-27T14:18:10.694Z,26.40
2018-11-27T14:20:38.644Z,30.10
2018-11-27T14:23:07.041Z,31.33
2018-11-27T14:25:34.880Z,27.87
2018-11-27T14:28:02.970Z,32.40
2018-11-27T14:30:30.880Z,30.23
2018-11-27T14:32:58.816Z,30.63
2018-11-27T14:35:40.270Z,33.07
2018-11-27T14:38:10.490Z,31.53
2018-11-27T14:40:38.494Z,30.63
2018-11-27T14:43:06.734Z,29.87
2018-11-27T14:45:34.815Z,29.20
2018-11-27T14:48:02.829Z,30.57
2018-11-27T14:50:30.890Z,31.50
2018-11-27T14:52:58.784Z,31.93
2018-11-27T14:55:28.989Z,34.43
2018-11-27T14:57:57.012Z,35.63
2018-11-27T15:00:25.697Z,32.23
2018-11-27T15:02:53.907Z,32.83
2018-11-27T15:05:27.237Z,30.53
2018-11-27T15:07:55.031Z,31.73
2018-11-27T15:10:22.986Z,28.43
2018-11-27T15:12:50.771Z,36.90
2018-11-27T15:15:18.978Z,35.47
2018-11-27T15:17:46.960Z,30.87
2018-11-27T15:20:20.086Z,35.77
2018-11-27T15:22:47.933Z,32.97
2018-11-27T15:25:15.945Z,31.43
2018-11-27T15:27:43.906Z,32.37
2018-11-27T15:30:18.572Z,32.43
2018-11-27T15:32:46.425Z,32.20
2018-11-27T15:35:14.607Z,31.80
2018-11-27T15:37:42.492Z,32.40
2018-11-27T15:40:14.629Z,34.67
2018-11-27T15:42:42.487Z,31.43
2018-11-27T15:45:12.953Z,32.20
2018-11-27T15:47:40.847Z,31.87
2018-11-27T15:50:10.022Z,36.03
2018-11-27T15:52:38.570Z,34.97
2018-11-27T15:55:14.255Z,33.47
2018-11-27T15:57:42.348Z,33.20
2018-11-27T16:00:15.475Z,36.33
2018-11-27T16:02:43.629Z,32.43
2018-11-27T16:05:12.327Z,34.27
2018-11-27T16:07:40.318Z,31.23
2018-11-27T16:10:14.863Z,36.47
2018-11-27T16:12:42.796Z,35.37
2018-11-27T16:15:15.112Z,37.60
2018-11-27T16:17:43.317Z,36.20
2018-11-27T16:20:15.249Z,37.87
2018-11-27T16:22:44.041Z,38.53
2018-11-27T16:25:14.045Z,41.23
2018-11-27T16:27:41.766Z,41.40
2018-11-27T16:30:20.655Z,39.53
2018-11-27T16:32:48.564Z,43.90
2018-11-27T16:35:16.484Z,44.10
2018-11-27T16:37:45.791Z,43.80
2018-11-27T16:40:17.542Z,38.13
2018-11-27T16:42:45.459Z,43.73
2018-11-27T16:45:16.233Z,41.97
2018-11-27T16:47:44.324Z,48.60
2018-11-27T16:50:13.261Z,41.87
2018-11-27T16:52:41.188Z,45.43
2018-11-27T16:55:11.495Z,45.70
2018-11-27T16:57:39.335Z,41.17
2018-11-27T17:00:19.074Z,42.83
2018-11-27T17:02:47.879Z,44.97
2018-11-27T17:05:16.093Z,40.60
2018-11-27T17:07:44.052Z,44.43
2018-11-27T17:10:13.157Z,41.63
2018-11-27T17:12:41.159Z,43.20
2018-11-27T17:15:11.036Z,42.57
2018-11-27T17:17:39.220Z,42.13
2018-11-27T17:20:41.612Z,42.60
2018-11-27T17:23:12.945Z,41.10
2018-11-27T17:25:40.822Z,42.83
2018-11-27T17:28:13.567Z,46.27
2018-11-27T17:30:48.724Z,39.63
2018-11-27T17:33:20.883Z,42.77
2018-11-27T17:35:48.829Z,44.00
2018-11-27T17:38:16.605Z,41.50
2018-11-27T17:40:44.543Z,41.87
2018-11-27T17:43:12.373Z,44.27
2018-11-27T17:45:40.374Z,48.03
2018-11-27T17:48:08.234Z,42.17
2018-11-27T17:50:36.120Z,43.93
2018-11-27T17:53:04.123Z,43.40
2018-11-27T17:55:32.002Z,46.23
2018-11-27T17:57:59.817Z,42.73
2018-11-27T18:00:28.870Z,42.90
2018-11-27T18:03:01.122Z,43.90
2018-11-27T18:05:28.990Z,41.70
2018-11-27T18:07:57.101Z,45.40
2018-11-27T18:10:25.126Z,43.93
2018-11-27T18:12:53.102Z,41.23
2018-11-27T18:15:21.971Z,44.40
2018-11-27T18:17:57.906Z,45.43
2018-11-27T18:20:25.827Z,47.47
2018-11-27T18:22:54.261Z,41.67
2018-11-27T18:25:22.267Z,43.63
2018-11-27T18:27:53.117Z,41.73
2018-11-27T18:30:22.229Z,41.57
2018-11-27T18:32:50.192Z,41.77
2018-11-27T18:35:20.236Z,39.57
2018-11-27T18:37:48.753Z,44.10
2018-11-27T18:40:17.118Z,38.97
2018-11-27T18:42:45.654Z,43.33
2018-11-27T18:45:22.199Z,40.33
2018-11-27T18:47:50.075Z,42.33
2018-11-27T18:50:18.109Z,41.73
2018-11-27T18:52:46.029Z,42.67
2018-11-27T18:55:14.727Z,42.47
2018-11-27T18:57:43.513Z,43.20
2018-11-27T19:00:16.396Z,41.43
2018-11-27T19:02:44.471Z,44.53
2018-11-27T19:05:12.400Z,45.87
2018-11-27T19:07:40.523Z,46.40
2018-11-27T19:10:12.491Z,45.73
2018-11-27T19:12:40.555Z,46.37
2018-11-27T19:15:14.490Z,45.10
2018-11-27T19:17:43.150Z,45.83
2018-11-27T19:20:12.235Z,42.67
2018-11-27T19:22:40.213Z,44.30
2018-11-27T19:25:11.610Z,43.03
2018-11-27T19:27:40.309Z,48.43
2018-11-27T19:30:16.186Z,46.97
2018-11-27T19:32:43.625Z,47.07
2018-11-27T19:35:12.607Z,51.13
2018-11-27T19:37:40.505Z,48.23
2018-11-27T19:40:10.100Z,48.00
2018-11-27T19:42:38.166Z,49.03
2018-11-27T19:45:13.491Z,47.37
2018-11-27T19:47:42.327Z,51.97
2018-11-27T19:50:11.213Z,49.10
2018-11-27T19:52:39.578Z,51.03
2018-11-27T19:55:11.103Z,48.63
2018-11-27T19:57:39.213Z,51.97
2018-11-27T20:00:17.491Z,48.67
2018-11-27T20:02:45.555Z,49.43
2018-11-27T20:05:15.299Z,49.07
2018-11-27T20:07:43.600Z,48.80
2018-11-27T20:10:12.642Z,48.73
2018-11-27T20:12:40.621Z,48.63
2018-11-27T20:15:12.934Z,51.97
2018-11-27T20:17:40.813Z,53.73
2018-11-27T20:20:10.100Z,53.17
2018-11-27T20:22:38.410Z,54.93
2018-11-27T20:25:08.148Z,54.57
2018-11-27T20:27:37.151Z,52.57
2018-11-27T20:30:07.325Z,52.63
2018-11-27T20:32:35.421Z,56.67
2018-11-27T20:35:04.470Z,50.83
2018-11-27T20:37:32.510Z,53.57
2018-11-27T20:40:00.430Z,56.13
2018-11-27T20:42:28.257Z,53.53
2018-11-27T20:44:56.044Z,51.43
2018-11-27T20:47:23.755Z,51.27
2018-11-27T20:49:51.909Z,48.47
2018-11-27T20:52:19.656Z,50.83
2018-11-27T20:54:47.758Z,50.90
2018-11-27T20:57:15.953Z,53.10
2018-11-27T20:59:44.032Z,52.90
2018-11-27T21:02:11.889Z,52.27
2018-11-27T21:04:39.798Z,51.30
2018-11-27T21:07:07.532Z,53.30
2018-11-27T21:09:35.247Z,54.60
2018-11-27T21:12:03.080Z,51.47
2018-11-27T21:14:30.962Z,51.17
2018-11-27T21:16:58.806Z,53.30
2018-11-27T21:19:26.955Z,48.83
2018-11-27T21:21:55.355Z,48.13
2018-11-27T21:24:23.226Z,51.73
2018-11-27T21:26:51.106Z,46.90
2018-11-27T21:29:19.221Z,51.40
2018-11-27T21:31:47.132Z,53.77
2018-11-27T21:34:15.010Z,52.70
2018-11-27T21:36:42.855Z,52.93
2018-11-27T21:39:10.659Z,54.03
2018-11-27T21:41:38.580Z,50.80
2018-11-27T21:44:06.471Z,56.00
2018-11-27T21:46:34.903Z,52.63
2018-11-27T21:49:02.866Z,54.20
2018-11-27T21:51:31.035Z,51.67
2018-11-27T21:53:59.052Z,53.20
2018-11-27T21:56:27.700Z,51.17
2018-11-27T21:58:55.727Z,53.67
2018-11-27T22:01:23.800Z,58.77
2018-11-27T22:03:52.409Z,54.67
2018-11-27T22:06:20.274Z,53.93
2018-11-27T22:08:49.252Z,54.27
2018-11-27T22:11:17.719Z,53.57
2018-11-27T22:13:45.629Z,52.00
2018-11-27T22:16:13.580Z,52.17
2018-11-27T22:18:41.364Z,54.87
2018-11-27T22:21:09.191Z,56.63
2018-11-27T22:23:37.376Z,56.53
2018-11-27T22:26:05.322Z,55.53
2018-11-27T22:28:33.138Z,49.97
2018-11-27T22:31:01.008Z,55.10
2018-11-27T22:33:47.460Z,50.27
2018-11-27T22:36:15.035Z,51.93
2018-11-27T22:38:43.114Z,53.10
2018-11-27T22:41:10.643Z,51.00
2018-11-27T22:43:38.158Z,53.77
2018-11-27T22:46:06.147Z,54.40
2018-11-27T22:48:33.642Z,55.77
2018-11-27T22:51:01.489Z,55.60
2018-11-27T22:53:29.105Z,49.90
2018-11-27T22:55:56.697Z,54.90
2018-11-27T22:58:24.344Z,52.17
2018-11-27T23:00:51.953Z,52.60
2018-11-27T23:03:19.624Z,53.73
2018-11-27T23:05:47.343Z,58.43
2018-11-27T23:08:15.028Z,52.43
2018-11-27T23:10:43.828Z,52.33
2018-11-27T23:13:11.384Z,48.67
2018-11-27T23:15:38.976Z,49.80
2018-11-27T23:18:06.589Z,54.60
2018-11-27T23:20:34.164Z,51.80
2018-11-27T23:23:01.662Z,55.03
2018-11-27T23:25:29.212Z,53.90
2018-11-27T23:27:56.747Z,54.43
2018-11-27T23:30:25.192Z,53.87
2018-11-27T23:32:52.731Z,55.27
2018-11-27T23:35:20.352Z,55.63
2018-11-27T23:37:47.941Z,56.10
2018-11-27T23:40:16.736Z,55.53
2018-11-27T23:42:44.539Z,56.43
2018-11-27T23:45:20.210Z,58.00
2018-11-27T23:47:47.890Z,56.43
2018-11-27T23:50:17.614Z,53.43
2018-11-27T23:52:45.671Z,54.90
2018-11-27T23:55:14.319Z,49.50
2018-11-27T23:57:42.854Z,52.80
